Time;durP1;ratioP1;P1;durP2;ratioP2;P2;SDS_P1;SDS_P2;PMS_P1;PMS_P2;Temp;Humidity;BMP_temperature;BMP_pressure;BME280_temperature;BME280_humidity;BME280_pressure;Samples;Min_cycle;Max_cycle;Signal;HPM_P1;HPM_P2
2022/06/06 00:00:08;;;;;;;;;;;21.30;94.30;21.50;99839.00;;;;343848;28;87893;-81
2022/06/06 00:00:20;;;;;;;;;;;21.30;94.30;21.50;99838.00;;;;344618;28;83291;-81
2022/06/06 00:00:31;;;;;;;;;;;21.30;94.40;21.50;99841.00;;;;345423;28;88068;-81
2022/06/06 00:00:44;;;;;;;;;;;21.30;94.40;21.50;99842.00;;;;345996;28;83389;-82
2022/06/06 00:00:56;;;;;;;;;;;21.30;94.40;21.50;99840.00;;;;343897;28;87903;-81
2022/06/06 00:01:09;;;;;;;;;;;21.30;94.20;21.50;99838.00;;;;345933;28;83386;-81
2022/06/06 00:01:21;;;;;;;;;;;21.30;94.20;21.50;99840.00;;;;345570;28;88982;-82
2022/06/06 00:01:33;;;;;;;;;;;21.30;94.20;21.40;99844.00;;;;344547;28;83182;-81
2022/06/06 00:01:46;;;;;;;;;;;21.30;94.30;21.40;99839.00;;;;344145;28;91741;-81
2022/06/06 00:01:58;;;;;;;;;;;21.40;94.30;21.40;99840.00;;;;346104;28;83278;-81
2022/06/06 00:02:10;;;;;;;;;;;21.30;94.30;21.40;99838.00;;;;346915;28;88069;-81
2022/06/06 00:02:22;;;;;;;;;;;21.30;94.20;21.30;99846.00;;;;347391;28;83417;-81
2022/06/06 00:02:36;;;;;;;;;;;21.30;94.30;21.30;99841.00;;;;345488;28;91655;-81
2022/06/06 00:02:49;;;;;;;;;;;21.30;94.30;21.20;99838.00;;;;344547;28;83347;-81
2022/06/06 00:03:01;;;;;;;;;;;21.30;94.30;21.20;99837.00;;;;345503;28;88808;-81
2022/06/06 00:03:14;;;;;;;;;;;21.30;94.40;21.20;99843.00;;;;345891;28;83318;-81
2022/06/06 00:03:27;;;;;;;;;;;21.30;94.40;21.30;99840.00;;;;345583;28;89234;-81
2022/06/06 00:03:40;;;;;;;;;;;21.30;94.30;21.40;99841.00;;;;344712;28;82274;-81
2022/06/06 00:03:52;;;;;;;;;;;21.30;94.40;21.40;99842.00;;;;344247;28;89385;-81
2022/06/06 00:04:04;;;;;;;;;;;21.30;94.40;21.40;99843.00;;;;347290;28;82444;-81
2022/06/06 00:04:16;;;;;;;;;;;21.20;94.30;21.40;99842.00;;;;343997;28;90094;-81
2022/06/06 00:04:28;;;;;;;;;;;21.30;94.40;21.40;99842.00;;;;345685;28;82660;-80
2022/06/06 00:04:40;;;;;;;;;;;21.30;94.30;21.40;99833.00;;;;342801;28;89427;-81
2022/06/06 00:04:52;;;;;;;;;;;21.30;94.30;21.40;99839.00;;;;344588;28;83364;-81
2022/06/06 00:05:04;;;;;;;;;;;21.30;94.40;21.40;99836.00;;;;344213;28;89138;-81
2022/06/06 00:05:16;;;;;;;;;;;21.30;94.30;21.40;99834.00;;;;345866;28;83373;-81
2022/06/06 00:05:28;;;;;;;;;;;21.30;94.30;21.30;99836.00;;;;345563;28;91537;-81
2022/06/06 00:05:44;;;;;;;;;;;21.20;94.40;21.30;99835.00;;;;347409;28;82341;-81
2022/06/06 00:05:56;;;;;;;;;;;21.30;94.40;21.40;99838.00;;;;345264;28;88737;-81
2022/06/06 00:06:13;;;;;;;;;;;21.20;94.30;21.40;99842.00;;;;347037;28;83453;-81
2022/06/06 00:06:25;;;;;;;;;;;21.20;94.30;21.40;99841.00;;;;344330;28;90232;-82
2022/06/06 00:06:39;;;;;;;;;;;21.20;94.40;21.40;99842.00;;;;346019;28;83231;-82
2022/06/06 00:06:51;;;;;;;;;;;21.20;94.40;21.40;99832.00;;;;346937;28;89394;-81
2022/06/06 00:07:04;;;;;;;;;;;21.20;94.30;21.30;99837.00;;;;344535;28;83337;-81
2022/06/06 00:07:16;;;;;;;;;;;21.20;94.70;21.30;99831.00;;;;342856;28;89490;-82
2022/06/06 00:07:27;;;;;;;;;;;21.20;94.40;21.30;99834.00;;;;344666;28;83103;-81
2022/06/06 00:07:39;;;;;;;;;;;21.20;94.50;21.30;99842.00;;;;344078;28;92469;-81
2022/06/06 00:07:51;;;;;;;;;;;21.20;94.60;21.20;99831.00;;;;347429;28;82489;-81
2022/06/06 00:08:03;;;;;;;;;;;21.20;94.60;21.20;99835.00;;;;348466;27;88236;-81
2022/06/06 00:08:16;;;;;;;;;;;21.20;94.60;21.20;99835.00;;;;345768;28;83238;-81
2022/06/06 00:08:27;;;;;;;;;;;21.20;94.50;21.20;99835.00;;;;343888;28;88977;-81
2022/06/06 00:08:39;;;;;;;;;;;21.10;94.50;21.30;99838.00;;;;346036;28;83239;-82
2022/06/06 00:08:51;;;;;;;;;;;21.20;94.50;21.30;99839.00;;;;346962;28;87680;-81
2022/06/06 00:09:03;;;;;;;;;;;21.20;94.50;21.20;99836.00;;;;347072;28;86747;-81
2022/06/06 00:09:15;;;;;;;;;;;21.20;94.50;21.20;99834.00;;;;346803;28;89084;-81
2022/06/06 00:09:27;;;;;;;;;;;21.10;94.50;21.20;99833.00;;;;348658;27;83266;-81
2022/06/06 00:09:39;;;;;;;;;;;21.10;94.60;21.10;99838.00;;;;346949;28;89092;-80
2022/06/06 00:09:51;;;;;;;;;;;21.20;94.60;21.20;99841.00;;;;346032;28;83471;-81
2022/06/06 00:10:03;;;;;;;;;;;21.10;94.60;21.20;99834.00;;;;346804;28;92343;-81
2022/06/06 00:10:14;;;;;;;;;;;21.10;94.50;21.20;99837.00;;;;347307;28;83284;-81
2022/06/06 00:10:26;;;;;;;;;;;21.20;94.60;21.20;99829.00;;;;342761;28;89025;-83
2022/06/06 00:10:39;;;;;;;;;;;21.10;94.60;21.20;99826.00;;;;347417;28;82402;-82
2022/06/06 00:10:54;;;;;;;;;;;21.10;94.70;21.10;99837.00;;;;346837;28;89536;-81
2022/06/06 00:11:08;;;;;;;;;;;21.10;94.70;21.10;99837.00;;;;347331;28;83388;-81
2022/06/06 00:11:20;;;;;;;;;;;21.10;94.60;21.10;99833.00;;;;344164;28;89395;-81
2022/06/06 00:11:34;;;;;;;;;;;21.10;94.60;21.10;99836.00;;;;345917;28;82337;-82
2022/06/06 00:11:46;;;;;;;;;;;21.10;94.60;21.00;99826.00;;;;346964;28;88081;-81
2022/06/06 00:11:58;;;;;;;;;;;21.10;94.70;21.10;99833.00;;;;344287;28;83604;-81
2022/06/06 00:12:11;;;;;;;;;;;21.10;94.70;21.10;99834.00;;;;344546;28;89393;-81
2022/06/06 00:12:24;;;;;;;;;;;21.10;94.70;21.10;99827.00;;;;345862;28;83279;-80
2022/06/06 00:12:37;;;;;;;;;;;21.10;94.80;21.10;99826.00;;;;342796;28;90381;-82
2022/06/06 00:12:49;;;;;;;;;;;21.10;94.80;21.10;99821.00;;;;342844;28;83464;-80
2022/06/06 00:13:01;;;;;;;;;;;21.10;94.80;21.10;99828.00;;;;345507;28;87602;-81
2022/06/06 00:13:13;;;;;;;;;;;21.10;94.70;21.10;99827.00;;;;346009;28;83208;-81
2022/06/06 00:13:25;;;;;;;;;;;21.00;94.80;21.00;99832.00;;;;345494;28;92309;-81
2022/06/06 00:13:38;;;;;;;;;;;21.00;94.80;21.00;99822.00;;;;343236;28;84879;-82
2022/06/06 00:13:50;;;;;;;;;;;21.10;94.80;21.00;99824.00;;;;342838;28;88140;-81
2022/06/06 00:14:02;;;;;;;;;;;21.00;94.70;21.10;99825.00;;;;346089;28;82404;-81
2022/06/06 00:14:14;;;;;;;;;;;21.00;94.80;21.10;99828.00;;;;346811;27;90263;-82
2022/06/06 00:14:27;;;;;;;;;;;21.00;94.80;21.10;99825.00;;;;344511;28;83532;-82
2022/06/06 00:14:39;;;;;;;;;;;21.10;95.00;21.00;99828.00;;;;344074;28;90112;-82
2022/06/06 00:14:50;;;;;;;;;;;21.00;94.90;20.90;99833.00;;;;345878;28;83367;-82
2022/06/06 00:15:03;;;;;;;;;;;21.00;94.90;20.90;99820.00;;;;345595;28;89588;-81
2022/06/06 00:15:15;;;;;;;;;;;21.00;94.90;21.10;99822.00;;;;347001;28;83311;-81
2022/06/06 00:15:26;;;;;;;;;;;21.00;95.00;21.20;99812.00;;;;345530;28;91667;-82
2022/06/06 00:15:38;;;;;;;;;;;21.00;95.00;21.20;99823.00;;;;345962;28;82406;-81
2022/06/06 00:15:50;;;;;;;;;;;21.00;94.90;21.20;99822.00;;;;345516;28;88232;-81
2022/06/06 00:16:03;;;;;;;;;;;21.00;94.90;21.20;99817.00;;;;347289;28;82613;-81
2022/06/06 00:16:14;;;;;;;;;;;21.00;94.80;21.20;99821.00;;;;346749;28;91609;-81
2022/06/06 00:16:27;;;;;;;;;;;21.00;94.90;21.30;99822.00;;;;345874;28;83487;-81
2022/06/06 00:16:39;;;;;;;;;;;21.00;94.90;21.30;99817.00;;;;346964;28;88744;-81
2022/06/06 00:16:52;;;;;;;;;;;21.10;95.00;21.20;99817.00;;;;347184;28;83525;-81
2022/06/06 00:17:04;;;;;;;;;;;21.00;95.00;21.10;99807.00;;;;345527;28;89203;-81
2022/06/06 00:17:16;;;;;;;;;;;21.00;94.90;21.10;99819.00;;;;343277;28;82378;-81
2022/06/06 00:17:28;;;;;;;;;;;21.00;94.90;21.00;99820.00;;;;344022;28;92694;-81
2022/06/06 00:17:39;;;;;;;;;;;21.00;94.90;21.20;99817.00;;;;344588;28;83422;-81
2022/06/06 00:17:51;;;;;;;;;;;21.10;95.00;21.20;99812.00;;;;345638;28;88443;-82
2022/06/06 00:18:03;;;;;;;;;;;21.00;95.00;21.20;99819.00;;;;344204;28;83325;-81
2022/06/06 00:18:15;;;;;;;;;;;21.10;95.00;21.30;99813.00;;;;344037;28;88992;-82
2022/06/06 00:18:27;;;;;;;;;;;21.10;95.00;21.30;99810.00;;;;347201;28;82463;-81
2022/06/06 00:18:38;;;;;;;;;;;21.00;94.90;21.30;99822.00;;;;345518;28;89940;-81
2022/06/06 00:18:50;;;;;;;;;;;21.00;94.90;21.20;99808.00;;;;345921;28;83261;-81
2022/06/06 00:19:03;;;;;;;;;;;21.00;94.90;21.30;99820.00;;;;345613;28;89121;-81
2022/06/06 00:19:15;;;;;;;;;;;21.00;94.90;21.30;99809.00;;;;344462;28;83407;-80
2022/06/06 00:19:26;;;;;;;;;;;21.10;95.00;21.20;99811.00;;;;343986;28;90339;-81
2022/06/06 00:19:39;;;;;;;;;;;21.10;95.00;21.30;99811.00;;;;344525;28;82222;-81
2022/06/06 00:19:50;;;;;;;;;;;21.10;95.00;21.30;99812.00;;;;342789;28;89742;-81
2022/06/06 00:20:02;;;;;;;;;;;21.10;95.00;21.30;99817.00;;;;344672;28;83194;-82
2022/06/06 00:20:16;;;;;;;;;;;21.10;94.90;21.30;99822.00;;;;345500;28;88043;-81
2022/06/06 00:20:27;;;;;;;;;;;21.10;94.90;21.30;99809.00;;;;345975;28;83406;-81
2022/06/06 00:20:39;;;;;;;;;;;21.10;94.90;21.10;99820.00;;;;342841;28;88808;-81
2022/06/06 00:20:51;;;;;;;;;;;21.10;95.00;21.20;99813.00;;;;346088;28;82420;-81
2022/06/06 00:21:05;;;;;;;;;;;21.10;95.00;21.20;99817.00;;;;346497;28;89041;-81
2022/06/06 00:21:16;;;;;;;;;;;21.00;95.00;21.30;99809.00;;;;347307;28;83384;-81
2022/06/06 00:21:28;;;;;;;;;;;21.10;95.00;21.30;99819.00;;;;346816;28;87397;-81
2022/06/06 00:21:40;;;;;;;;;;;21.10;95.00;21.30;99823.00;;;;344554;28;83373;-81
2022/06/06 00:21:52;;;;;;;;;;;21.10;95.00;21.30;99809.00;;;;344182;28;89671;-81
2022/06/06 00:22:04;;;;;;;;;;;21.10;94.90;21.30;99819.00;;;;344549;28;82532;-81
2022/06/06 00:22:16;;;;;;;;;;;21.10;95.00;21.20;99820.00;;;;345444;28;89331;-81
2022/06/06 00:22:27;;;;;;;;;;;21.10;95.10;21.20;99810.00;;;;344712;28;82420;-81
2022/06/06 00:22:39;;;;;;;;;;;21.10;95.00;21.30;99811.00;;;;346875;28;89625;-81
2022/06/06 00:22:51;;;;;;;;;;;21.10;95.00;21.20;99824.00;;;;347159;28;83146;-81
2022/06/06 00:23:03;;;;;;;;;;;21.10;94.90;21.20;99821.00;;;;344181;28;91444;-81
2022/06/06 00:23:14;;;;;;;;;;;21.10;94.90;21.20;99825.00;;;;346098;28;83194;-81
2022/06/06 00:23:26;;;;;;;;;;;21.10;94.90;21.10;99813.00;;;;345580;28;88314;-81
2022/06/06 00:23:38;;;;;;;;;;;21.10;94.90;21.10;99820.00;;;;347371;28;83376;-81
2022/06/06 00:23:51;;;;;;;;;;;21.10;95.00;21.20;99820.00;;;;345572;28;88835;-82
2022/06/06 00:24:03;;;;;;;;;;;21.10;95.00;21.00;99817.00;;;;344115;28;83523;-81
2022/06/06 00:24:15;;;;;;;;;;;21.00;95.00;21.00;99809.00;;;;344041;28;91827;-81
2022/06/06 00:24:27;;;;;;;;;;;21.00;95.00;21.10;99806.00;;;;343268;28;82326;-81
2022/06/06 00:24:38;;;;;;;;;;;21.00;95.00;21.10;99821.00;;;;344080;28;92541;-81
2022/06/06 00:24:50;;;;;;;;;;;21.00;95.00;21.20;99807.00;;;;343079;28;82483;-81
2022/06/06 00:25:03;;;;;;;;;;;21.00;95.00;21.10;99812.00;;;;345465;28;92074;-81
2022/06/06 00:25:14;;;;;;;;;;;21.00;94.90;21.10;99821.00;;;;347324;28;83371;-82
2022/06/06 00:25:27;;;;;;;;;;;21.00;94.90;21.20;99818.00;;;;344145;28;90895;-81
2022/06/06 00:25:39;;;;;;;;;;;21.00;95.00;21.20;99812.00;;;;344621;28;83470;-81
2022/06/06 00:25:52;;;;;;;;;;;21.00;95.00;21.20;99808.00;;;;344119;28;92430;-81
2022/06/06 00:26:07;;;;;;;;;;;21.00;95.00;21.10;99811.00;;;;343280;28;83304;-81
2022/06/06 00:26:19;;;;;;;;;;;21.00;95.00;21.00;99809.00;;;;346898;28;89414;-80
2022/06/06 00:26:31;;;;;;;;;;;21.00;95.10;21.00;99813.00;;;;347393;28;83538;-82
2022/06/06 00:26:43;;;;;;;;;;;21.00;95.00;21.10;99817.00;;;;345500;28;88936;-81
2022/06/06 00:26:56;;;;;;;;;;;21.00;95.00;21.00;99809.00;;;;346972;28;83338;-81
2022/06/06 00:27:08;;;;;;;;;;;21.00;95.10;21.20;99811.00;;;;346546;28;92399;-81
2022/06/06 00:27:19;;;;;;;;;;;21.00;95.00;21.10;99811.00;;;;346033;28;83155;-81
2022/06/06 00:27:32;;;;;;;;;;;21.00;95.30;21.20;99817.00;;;;342677;28;88836;-81
2022/06/06 00:27:44;;;;;;;;;;;21.00;95.00;21.10;99809.00;;;;343255;28;83372;-81
2022/06/06 00:27:55;;;;;;;;;;;21.00;95.10;21.10;99810.00;;;;345321;28;90780;-80
2022/06/06 00:28:07;;;;;;;;;;;21.00;95.10;20.90;99813.00;;;;344414;28;83492;-82
2022/06/06 00:28:19;;;;;;;;;;;21.00;95.10;21.00;99805.00;;;;344072;28;92514;-81
2022/06/06 00:28:31;;;;;;;;;;;20.90;95.10;21.10;99805.00;;;;344571;28;83626;-81
2022/06/06 00:28:45;;;;;;;;;;;20.90;95.10;21.10;99801.00;;;;344121;28;89922;-81
2022/06/06 00:28:57;;;;;;;;;;;20.90;95.10;21.00;99807.00;;;;343074;28;83499;-81
2022/06/06 00:29:09;;;;;;;;;;;20.90;95.10;21.10;99813.00;;;;345483;28;91518;-81
2022/06/06 00:29:21;;;;;;;;;;;20.90;95.10;21.10;99805.00;;;;343264;28;83355;-79
2022/06/06 00:29:35;;;;;;;;;;;20.90;95.20;21.10;99813.00;;;;344086;28;88970;-81
2022/06/06 00:29:49;;;;;;;;;;;20.90;95.20;20.90;99807.00;;;;346021;28;83357;-81
2022/06/06 00:30:01;;;;;;;;;;;20.90;95.20;21.00;99812.00;;;;343764;28;89167;-81
2022/06/06 00:30:12;;;;;;;;;;;20.90;95.20;20.90;99817.00;;;;344604;28;83307;-82
2022/06/06 00:30:24;;;;;;;;;;;20.90;95.20;20.90;99809.00;;;;344040;28;89545;-81
2022/06/06 00:30:36;;;;;;;;;;;20.90;95.20;20.90;99818.00;;;;344541;28;83435;-81
2022/06/06 00:30:48;;;;;;;;;;;20.90;95.30;20.90;99806.00;;;;343978;28;90030;-81
2022/06/06 00:34:48;;;;;;;;;;;20.90;95.20;20.90;99807.00;;;;347314;28;83483;-81
2022/06/06 00:34:49;;;;;;;;;;;20.80;95.30;20.90;99817.00;;;;344396;28;88649;-81
2022/06/06 00:35:04;;;;;;;;;;;20.80;95.40;20.90;99812.00;;;;344803;28;83391;-81
2022/06/06 00:35:16;;;;;;;;;;;20.80;95.50;21.00;99811.00;;;;346784;28;90161;-81
2022/06/06 00:35:28;;;;;;;;;;;20.80;95.50;20.90;99807.00;;;;346275;28;83325;-81
2022/06/06 00:35:40;;;;;;;;;;;20.80;95.60;20.80;99806.00;;;;345763;28;89447;-81
2022/06/06 00:35:56;;;;;;;;;;;20.80;95.60;20.70;99820.00;;;;346244;28;83414;-81
2022/06/06 00:36:07;;;;;;;;;;;20.70;95.60;20.60;99812.00;;;;342787;28;90357;-80
2022/06/06 00:36:19;;;;;;;;;;;20.80;95.70;20.70;99813.00;;;;346218;28;82409;-79
2022/06/06 00:36:34;;;;;;;;;;;20.70;95.60;20.70;99818.00;;;;344488;28;89504;-81
2022/06/06 00:36:45;;;;;;;;;;;20.70;95.70;20.80;99812.00;;;;344826;28;83150;-81
2022/06/06 00:36:57;;;;;;;;;;;20.70;95.70;20.80;99811.00;;;;344151;28;89412;-81
2022/06/06 00:37:12;;;;;;;;;;;20.70;95.70;20.90;99813.00;;;;344734;28;82449;-80
2022/06/06 00:37:27;;;;;;;;;;;20.70;95.70;20.90;99806.00;;;;345560;28;93372;-81
2022/06/06 00:37:41;;;;;;;;;;;20.70;95.70;20.70;99813.00;;;;346170;28;84223;-81
2022/06/06 00:37:53;;;;;;;;;;;20.70;95.80;20.90;99819.00;;;;345739;28;89694;-81
2022/06/06 00:38:05;;;;;;;;;;;20.70;95.70;20.90;99818.00;;;;347598;28;82379;-81
2022/06/06 00:38:17;;;;;;;;;;;20.70;95.60;20.90;99807.00;;;;347151;28;89126;-81
2022/06/06 00:38:28;;;;;;;;;;;20.70;95.60;21.00;99805.00;;;;343540;28;83376;-81
2022/06/06 00:38:40;;;;;;;;;;;20.70;95.60;20.90;99805.00;;;;347229;28;86823;-82
2022/06/06 00:38:52;;;;;;;;;;;20.70;95.60;20.90;99812.00;;;;348906;27;82295;-81
2022/06/06 00:39:06;;;;;;;;;;;20.70;95.50;20.90;99805.00;;;;345570;28;88144;-81
2022/06/06 00:39:18;;;;;;;;;;;20.70;95.50;20.80;99812.00;;;;343487;28;83236;-81
2022/06/06 00:39:29;;;;;;;;;;;20.70;95.60;20.80;99817.00;;;;345159;28;90872;-82
2022/06/06 00:39:41;;;;;;;;;;;20.70;95.60;20.70;99808.00;;;;344800;28;83475;-81
2022/06/06 00:39:53;;;;;;;;;;;20.70;95.50;20.60;99807.00;;;;344457;28;88965;-81
2022/06/06 00:40:07;;;;;;;;;;;20.70;95.60;20.60;99808.00;;;;346191;28;83255;-80
2022/06/06 00:40:22;;;;;;;;;;;20.70;95.80;20.70;99810.00;;;;345691;28;91168;-81
2022/06/06 00:40:33;;;;;;;;;;;20.70;95.60;20.80;99810.00;;;;343544;28;83304;-81
2022/06/06 00:40:48;;;;;;;;;;;20.70;95.60;20.80;99805.00;;;;344075;28;90263;-81
2022/06/06 00:41:00;;;;;;;;;;;20.70;95.60;20.80;99812.00;;;;344720;28;83430;-81
2022/06/06 00:41:12;;;;;;;;;;;20.70;95.50;20.80;99813.00;;;;344352;28;89793;-81
2022/06/06 00:41:23;;;;;;;;;;;20.70;95.60;20.70;99811.00;;;;346230;28;83485;-81
2022/06/06 00:41:39;;;;;;;;;;;20.70;95.70;20.70;99809.00;;;;347092;28;90221;-81
2022/06/06 00:41:51;;;;;;;;;;;20.70;95.80;20.70;99798.00;;;;347653;28;82287;-81
2022/06/06 00:42:11;;;;;;;;;;;20.70;95.80;20.80;99806.00;;;;346794;28;89547;-81
2022/06/06 00:42:27;;;;;;;;;;;20.70;95.80;20.80;99806.00;;;;344844;28;83333;-81
2022/06/06 00:42:41;;;;;;;;;;;20.70;95.80;20.80;99810.00;;;;347118;28;92378;-81
2022/06/06 00:42:52;;;;;;;;;;;20.70;95.80;20.70;99806.00;;;;343461;28;83337;-81
2022/06/06 00:43:04;;;;;;;;;;;20.70;95.80;20.70;99807.00;;;;344229;28;89169;-81
2022/06/06 00:43:17;;;;;;;;;;;20.70;95.80;20.60;99807.00;;;;346149;28;83352;-81
2022/06/06 00:43:29;;;;;;;;;;;20.70;95.80;20.60;99811.00;;;;345590;28;89277;-81
2022/06/06 00:43:41;;;;;;;;;;;20.70;95.90;20.70;99810.00;;;;343405;28;83215;-81
2022/06/06 00:44:12;;;;;;;;;;;20.70;95.90;20.80;99812.00;;;;344409;28;89172;-81
2022/06/06 00:44:31;;;;;;;;;;;20.60;95.80;20.70;99812.00;;;;344817;28;82398;-81
2022/06/06 00:44:43;;;;;;;;;;;20.60;95.90;20.70;99808.00;;;;344422;28;89039;-81
2022/06/06 00:45:16;;;;;;;;;;;20.70;95.90;20.70;99817.00;;;;345887;28;83411;-81
2022/06/06 00:45:37;;;;;;;;;;;20.60;95.90;20.70;99811.00;;;;345617;28;92344;-81
2022/06/06 00:45:50;;;;;;;;;;;20.60;95.90;20.70;99809.00;;;;344900;28;82440;-81
2022/06/06 00:46:02;;;;;;;;;;;20.60;95.90;20.70;99819.00;;;;345344;28;91871;-81
2022/06/06 00:46:14;;;;;;;;;;;20.60;96.00;20.80;99805.00;;;;346159;28;83482;-81
2022/06/06 00:46:26;;;;;;;;;;;20.60;96.00;20.70;99801.00;;;;346890;28;90676;-81
2022/06/06 00:46:44;;;;;;;;;;;20.60;95.90;20.50;99810.00;;;;347612;28;83263;-81
2022/06/06 00:47:18;;;;;;;;;;;20.60;96.00;20.60;99806.00;;;;346899;28;91934;-81
2022/06/06 00:47:29;;;;;;;;;;;20.60;96.00;20.70;99813.00;;;;347356;28;83476;-81
2022/06/06 00:47:41;;;;;;;;;;;20.60;96.00;20.70;99817.00;;;;345621;28;91353;-81
2022/06/06 00:48:02;;;;;;;;;;;20.60;96.00;20.80;99804.00;;;;345838;28;83163;-81
2022/06/06 00:48:21;;;;;;;;;;;20.60;96.00;20.70;99812.00;;;;345546;28;91571;-81
2022/06/06 00:48:36;;;;;;;;;;;20.50;96.00;20.70;99803.00;;;;343461;28;83229;-81
2022/06/06 00:48:48;;;;;;;;;;;20.60;95.90;20.80;99805.00;;;;345716;28;91749;-81
2022/06/06 00:49:02;;;;;;;;;;;20.60;96.00;20.90;99801.00;;;;346161;28;83398;-81
2022/06/06 00:49:25;;;;;;;;;;;20.60;96.10;20.90;99805.00;;;;347069;28;91911;-81
2022/06/06 00:49:38;;;;;;;;;;;20.60;96.00;20.90;99804.00;;;;347517;28;83370;-81
2022/06/06 00:49:51;;;;;;;;;;;20.60;96.00;20.90;99806.00;;;;345754;28;89985;-81
2022/06/06 00:50:29;;;;;;;;;;;20.60;96.00;20.90;99800.00;;;;346153;28;82342;-81
2022/06/06 00:50:48;;;;;;;;;;;20.60;96.00;20.90;99800.00;;;;341497;28;88385;-81
2022/06/06 00:51:05;;;;;;;;;;;20.70;96.10;20.90;99809.00;;;;340411;28;82654;-82
2022/06/06 00:51:17;;;;;;;;;;;20.60;96.00;20.90;99798.00;;;;340194;28;90412;-81
2022/06/06 00:51:30;;;;;;;;;;;20.70;96.00;20.90;99807.00;;;;338754;28;83268;-82
2022/06/06 00:51:41;;;;;;;;;;;20.70;96.00;20.90;99804.00;;;;338923;28;90562;-82
2022/06/06 00:51:53;;;;;;;;;;;20.60;96.00;20.80;99810.00;;;;340739;28;83364;-81
2022/06/06 00:52:14;;;;;;;;;;;20.60;96.00;20.80;99806.00;;;;338860;28;92706;-81
2022/06/06 00:52:28;;;;;;;;;;;20.70;96.10;20.80;99806.00;;;;338000;28;82420;-81
2022/06/06 00:52:40;;;;;;;;;;;20.70;96.00;20.90;99804.00;;;;337577;28;89320;-82
2022/06/06 00:52:52;;;;;;;;;;;20.70;96.00;20.80;99807.00;;;;339032;28;83698;-81
2022/06/06 00:53:04;;;;;;;;;;;20.60;96.00;20.80;99801.00;;;;336345;28;89336;-81
2022/06/06 00:53:27;;;;;;;;;;;20.70;96.10;20.80;99808.00;;;;337953;28;83377;-80
2022/06/06 00:53:47;;;;;;;;;;;20.70;96.10;20.80;99804.00;;;;340279;28;88243;-81
2022/06/06 00:53:58;;;;;;;;;;;20.60;96.10;20.80;99802.00;;;;339996;28;83586;-81
2022/06/06 00:54:10;;;;;;;;;;;20.60;96.10;20.80;99800.00;;;;337968;28;88289;-82
2022/06/06 00:54:22;;;;;;;;;;;20.60;96.00;20.70;99803.00;;;;339335;28;83483;-81
2022/06/06 00:54:34;;;;;;;;;;;20.60;96.10;20.70;99805.00;;;;339029;28;88768;-82
2022/06/06 00:54:46;;;;;;;;;;;20.60;96.10;20.60;99800.00;;;;340645;28;82303;-81
2022/06/06 00:55:01;;;;;;;;;;;20.60;96.20;20.60;99800.00;;;;341519;28;90203;-81
2022/06/06 00:55:15;;;;;;;;;;;20.50;96.10;20.70;99798.00;;;;340685;28;84179;-82
2022/06/06 00:55:29;;;;;;;;;;;20.60;96.00;20.70;99794.00;;;;340311;28;88480;-81
2022/06/06 00:55:43;;;;;;;;;;;20.50;96.00;20.60;99799.00;;;;341822;28;84027;-79
2022/06/06 00:55:59;;;;;;;;;;;20.60;96.10;20.70;99791.00;;;;341493;28;91945;-81
2022/06/06 00:56:20;;;;;;;;;;;20.60;96.00;20.60;99798.00;;;;340569;28;83548;-81
2022/06/06 00:56:38;;;;;;;;;;;20.50;96.00;20.50;99792.00;;;;340349;28;88810;-81
2022/06/06 00:56:52;;;;;;;;;;;20.60;96.10;20.50;99798.00;;;;340521;28;82592;-81
2022/06/06 00:57:10;;;;;;;;;;;20.50;96.10;20.60;99788.00;;;;340152;28;87888;-82
2022/06/06 00:57:24;;;;;;;;;;;20.50;96.10;20.70;99786.00;;;;342101;28;83233;-81
2022/06/06 00:57:38;;;;;;;;;;;20.50;96.10;20.60;99796.00;;;;340125;28;93337;-82
2022/06/06 00:57:56;;;;;;;;;;;20.50;96.20;20.50;99783.00;;;;341969;28;83325;-81
2022/06/06 00:58:17;;;;;;;;;;;20.50;96.30;20.50;99790.00;;;;341623;28;89064;-81
2022/06/06 00:58:29;;;;;;;;;;;20.50;96.20;20.50;99791.00;;;;342034;28;83403;-82
2022/06/06 00:58:40;;;;;;;;;;;20.50;96.20;20.60;99790.00;;;;340242;28;88354;-81
2022/06/06 00:58:55;;;;;;;;;;;20.50;96.10;20.60;99792.00;;;;341987;28;83405;-81
2022/06/06 00:59:10;;;;;;;;;;;20.50;96.10;20.60;99786.00;;;;341379;28;90432;-81
2022/06/06 00:59:25;;;;;;;;;;;20.50;96.10;20.70;99785.00;;;;342068;28;83554;-81
2022/06/06 00:59:37;;;;;;;;;;;20.50;96.10;20.70;99788.00;;;;338861;28;91545;-81
2022/06/06 00:59:49;;;;;;;;;;;20.50;96.20;20.80;99794.00;;;;339397;28;83248;-81
2022/06/06 01:00:06;;;;;;;;;;;20.50;96.20;20.80;99784.00;;;;339905;28;89432;-81
2022/06/06 01:00:19;;;;;;;;;;;20.50;96.10;20.70;99788.00;;;;343282;28;83405;-81
2022/06/06 01:00:30;;;;;;;;;;;20.50;96.10;20.70;99785.00;;;;338772;28;92182;-81
2022/06/06 01:00:43;;;;;;;;;;;20.50;96.10;20.70;99787.00;;;;339285;28;83292;-81
2022/06/06 01:00:55;;;;;;;;;;;20.50;96.10;20.70;99782.00;;;;338701;28;92204;-80
2022/06/06 01:01:08;;;;;;;;;;;20.50;96.10;20.60;99783.00;;;;340723;28;83346;-81
2022/06/06 01:01:20;;;;;;;;;;;20.50;96.20;20.70;99790.00;;;;341507;28;90699;-81
2022/06/06 01:01:35;;;;;;;;;;;20.50;96.10;20.70;99788.00;;;;340595;28;83408;-81
2022/06/06 01:01:49;;;;;;;;;;;20.50;96.10;20.70;99787.00;;;;340208;28;89067;-81
2022/06/06 01:02:01;;;;;;;;;;;20.50;96.10;20.70;99787.00;;;;338073;28;83299;-80
2022/06/06 01:02:13;;;;;;;;;;;20.50;96.00;20.60;99790.00;;;;340185;28;88946;-81
2022/06/06 01:02:24;;;;;;;;;;;20.50;96.00;20.60;99788.00;;;;341928;28;83350;-81
2022/06/06 01:02:36;;;;;;;;;;;20.50;96.20;20.60;99788.00;;;;340290;28;92263;-81
2022/06/06 01:02:51;;;;;;;;;;;20.50;96.20;20.60;99786.00;;;;341962;28;83473;-81
2022/06/06 01:03:03;;;;;;;;;;;20.50;96.30;20.60;99788.00;;;;341481;28;89285;-81
2022/06/06 01:03:16;;;;;;;;;;;20.50;96.20;20.60;99788.00;;;;339164;28;83510;-81
2022/06/06 01:03:28;;;;;;;;;;;20.50;96.20;20.60;99788.00;;;;338634;28;92311;-81
2022/06/06 01:03:40;;;;;;;;;;;20.50;96.20;20.60;99789.00;;;;340720;28;83420;-81
2022/06/06 01:03:55;;;;;;;;;;;20.50;96.20;20.60;99793.00;;;;341600;28;89683;-81
2022/06/06 01:04:08;;;;;;;;;;;20.50;96.20;20.60;99786.00;;;;337976;28;83222;-81
2022/06/06 01:04:21;;;;;;;;;;;20.50;96.10;20.60;99788.00;;;;338829;28;89920;-82
2022/06/06 01:04:32;;;;;;;;;;;20.50;96.10;20.60;99787.00;;;;339449;28;82514;-81
2022/06/06 01:04:45;;;;;;;;;;;20.50;96.10;20.60;99786.00;;;;340307;28;89181;-81
2022/06/06 01:04:57;;;;;;;;;;;20.40;96.20;20.60;99790.00;;;;340764;28;82495;-82
2022/06/06 01:05:09;;;;;;;;;;;20.50;96.20;20.60;99790.00;;;;340088;28;89310;-80
2022/06/06 01:05:21;;;;;;;;;;;20.50;96.30;20.50;99783.00;;;;337928;28;83546;-81
2022/06/06 01:05:33;;;;;;;;;;;20.50;96.30;20.60;99784.00;;;;340163;28;91423;-81
2022/06/06 01:05:46;;;;;;;;;;;20.50;96.30;20.70;99787.00;;;;339450;28;82354;-81
2022/06/06 01:05:58;;;;;;;;;;;20.50;96.40;20.50;99778.00;;;;339608;28;87621;-81
2022/06/06 01:06:11;;;;;;;;;;;20.50;96.40;20.60;99783.00;;;;339568;28;83371;-81
2022/06/06 01:06:24;;;;;;;;;;;20.50;96.40;20.70;99781.00;;;;341437;28;90260;-81
2022/06/06 01:06:39;;;;;;;;;;;20.50;96.70;20.70;99788.00;;;;340714;28;83363;-81
2022/06/06 01:06:50;;;;;;;;;;;20.50;96.40;20.70;99786.00;;;;340231;28;89388;-81
2022/06/06 01:07:04;;;;;;;;;;;20.50;96.40;20.80;99784.00;;;;340456;28;84593;-81
2022/06/06 01:07:16;;;;;;;;;;;20.50;96.40;20.80;99790.00;;;;337604;28;89029;-82
2022/06/06 01:07:28;;;;;;;;;;;20.50;96.30;20.80;99794.00;;;;339342;28;83237;-82
2022/06/06 01:07:40;;;;;;;;;;;20.50;96.30;20.80;99787.00;;;;341530;28;89754;-82
2022/06/06 01:07:51;;;;;;;;;;;20.50;96.30;20.70;99781.00;;;;339358;28;82211;-81
2022/06/06 01:08:04;;;;;;;;;;;20.50;96.30;20.70;99775.00;;;;340079;28;89083;-81
2022/06/06 01:08:16;;;;;;;;;;;20.50;96.30;20.70;99786.00;;;;337917;28;82499;-81
2022/06/06 01:08:28;;;;;;;;;;;20.50;96.30;20.70;99790.00;;;;337499;28;89557;-81
2022/06/06 01:08:40;;;;;;;;;;;20.50;96.30;20.70;99790.00;;;;339432;28;83161;-81
2022/06/06 01:08:52;;;;;;;;;;;20.50;96.30;20.70;99789.00;;;;340104;28;89216;-81